Time;durP1;ratioP1;P1;durP2;ratioP2;P2;SDS_P1;SDS_P2;PMS_P1;PMS_P2;Temp;Humidity;BMP_temperature;BMP_pressure;BME280_temperature;BME280_humidity;BME280_pressure;Samples;Min_cycle;Max_cycle;Signal;HPM_P1;HPM_P2
2022/08/18 00:01:09;;;;;;;;;59.33;46.00;;;;;24.55;73.99;100594.90;110483;1265;13941;-49
2022/08/18 00:03:36;;;;;;;;;59.33;45.33;;;;;24.56;74.04;100597.73;110536;1264;14720;-48
2022/08/18 00:06:03;;;;;;;;;58.33;46.00;;;;;24.57;74.10;100595.50;110506;1265;14615;-49
2022/08/18 00:08:30;;;;;;;;;56.00;45.33;;;;;24.55;74.24;100596.46;110561;1264;10651;-48
2022/08/18 00:10:58;;;;;;;;;68.00;54.00;;;;;24.48;74.51;100602.34;110507;1264;13255;-47
2022/08/18 00:13:25;;;;;;;;;60.00;49.67;;;;;24.48;74.59;100603.95;110436;1264;14207;-50
2022/08/18 00:15:52;;;;;;;;;57.33;45.00;;;;;24.48;74.60;100600.83;110486;1264;12843;-49
2022/08/18 00:18:20;;;;;;;;;54.00;43.33;;;;;24.42;74.84;100603.12;110518;1265;14969;-48
2022/08/18 00:20:47;;;;;;;;;58.00;45.67;;;;;24.40;75.11;100603.32;110531;1264;14336;-48
2022/08/18 00:23:14;;;;;;;;;59.00;48.00;;;;;24.34;75.20;100604.41;110555;1263;10511;-47
2022/08/18 00:25:42;;;;;;;;;56.67;46.67;;;;;24.31;75.41;100607.17;110456;1264;14738;-47
2022/08/18 00:28:09;;;;;;;;;60.50;43.00;;;;;24.24;75.69;100612.11;110493;1264;14038;-47
2022/08/18 00:30:36;;;;;;;;;65.67;52.33;;;;;24.16;76.12;100614.42;110496;1264;13216;-47
2022/08/18 00:33:03;;;;;;;;;74.33;59.33;;;;;24.12;76.34;100616.02;110497;1264;13399;-47
2022/08/18 00:35:31;;;;;;;;;69.33;53.67;;;;;24.15;76.34;100616.70;110547;1264;14074;-49
2022/08/18 00:37:58;;;;;;;;;61.67;48.00;;;;;24.11;76.44;100614.49;110531;1264;12835;-48
2022/08/18 00:40:27;;;;;;;;;65.50;53.00;;;;;24.05;76.67;100608.92;110470;1264;14878;-48
2022/08/18 00:42:54;;;;;;;;;59.33;47.00;;;;;24.03;76.66;100612.38;110507;1264;14201;-46
2022/08/18 00:45:21;;;;;;;;;58.67;48.00;;;;;23.91;77.18;100614.20;110524;1264;14372;-47
2022/08/18 00:47:49;;;;;;;;;59.00;47.00;;;;;23.95;77.03;100611.66;110546;1264;15529;-47
2022/08/18 00:50:16;;;;;;;;;66.50;50.50;;;;;23.85;77.39;100615.55;110580;1264;12064;-48
2022/08/18 00:52:43;;;;;;;;;59.67;48.33;;;;;23.74;77.88;100618.16;110493;1265;14725;-48
2022/08/18 00:55:11;;;;;;;;;61.67;50.00;;;;;23.74;78.22;100615.98;110513;1264;13247;-49
2022/08/18 00:57:38;;;;;;;;;59.67;49.00;;;;;23.84;78.20;100617.39;110545;1264;14355;-49
2022/08/18 01:00:09;;;;;;;;;61.00;50.00;;;;;23.87;78.08;100615.82;110550;1264;15623;-47
2022/08/18 01:02:38;;;;;;;;;59.67;49.33;;;;;23.81;78.36;100609.08;110524;1264;14348;-52
2022/08/18 01:05:06;;;;;;;;;60.00;50.00;;;;;23.76;78.73;100605.63;110541;1264;11506;-47
2022/08/18 01:07:33;;;;;;;;;91.67;74.00;;;;;23.73;79.04;100604.06;110548;1264;12699;-48
2022/08/18 01:10:03;;;;;;;;;72.67;58.00;;;;;23.69;79.18;100607.23;110514;1264;13850;-48
2022/08/18 01:12:31;;;;;;;;;63.00;50.00;;;;;23.66;79.32;100605.45;110525;1265;12600;-49
2022/08/18 01:14:58;;;;;;;;;70.33;54.33;;;;;23.65;79.35;100600.70;110501;1265;13185;-49
2022/08/18 01:22:56;;;;;;;;;67.00;53.00;;;;;23.89;78.44;100592.49;110520;1264;13504;-48
2022/08/18 01:28:08;;;;;;;;;58.50;49.00;;;;;23.75;78.81;100591.17;110536;1264;11084;-47
2022/08/18 01:30:35;;;;;;;;;67.33;51.00;;;;;23.70;79.14;100589.43;110405;1265;14277;-47
2022/08/18 01:33:04;;;;;;;;;63.50;51.00;;;;;23.81;78.78;100590.93;110526;1265;13032;-48
2022/08/18 01:35:34;;;;;;;;;60.00;49.00;;;;;23.75;78.85;100588.27;110541;1264;11375;-48
2022/08/18 01:38:01;;;;;;;;;63.00;51.00;;;;;23.70;79.07;100584.04;110420;1264;13222;-51
2022/08/18 01:40:28;;;;;;;;;61.00;49.00;;;;;23.67;79.23;100585.96;110473;1264;13112;-51
2022/08/18 01:42:55;;;;;;;;;65.00;52.33;;;;;23.56;79.43;100590.04;110379;1265;13882;-49
2022/08/18 01:45:23;;;;;;;;;67.00;54.00;;;;;23.49;79.65;100587.23;110437;1264;12043;-49
2022/08/18 01:47:50;;;;;;;;;71.33;55.00;;;;;23.42;79.95;100587.62;110479;1265;12361;-46
2022/08/18 01:50:17;;;;;;;;;69.00;54.00;;;;;23.50;80.14;100586.38;110545;1265;10407;-48
2022/08/18 01:52:45;;;;;;;;;69.33;55.00;;;;;23.58;79.57;100588.46;110537;1263;13173;-48
2022/08/18 01:55:12;;;;;;;;;73.00;56.00;;;;;23.52;79.81;100593.64;110531;1265;13646;-48
2022/08/18 01:57:43;;;;;;;;;69.00;54.33;;;;;23.46;80.17;100594.73;110568;1264;13183;-47
2022/08/18 02:00:10;;;;;;;;;70.50;56.00;;;;;23.57;80.05;100593.09;110520;1263;13364;-47
2022/08/18 02:02:37;;;;;;;;;64.33;53.00;;;;;23.45;80.13;100594.48;110477;1264;11742;-50
2022/08/18 02:05:05;;;;;;;;;69.67;56.00;;;;;23.34;80.79;100585.71;110546;1264;10501;-48
2022/08/18 02:07:32;;;;;;;;;66.33;54.00;;;;;23.51;80.60;100584.83;110403;1265;13634;-46
2022/08/18 02:09:59;;;;;;;;;68.00;54.00;;;;;23.51;80.40;100585.85;110421;1263;13612;-44
2022/08/18 02:12:26;;;;;;;;;69.67;53.00;;;;;23.43;80.59;100587.13;110543;1264;13621;-46
2022/08/18 02:14:54;;;;;;;;;70.00;54.33;;;;;23.41;80.68;100589.38;110514;1265;12547;-47
2022/08/18 02:17:21;;;;;;;;;68.33;53.00;;;;;23.38;80.99;100590.90;110555;1264;10548;-46
2022/08/18 02:19:49;;;;;;;;;68.67;54.00;;;;;23.46;80.80;100585.05;110527;1264;13032;-47
2022/08/18 02:22:16;;;;;;;;;72.33;54.67;;;;;23.51;80.62;100581.73;110559;1263;13682;-56
2022/08/18 02:24:43;;;;;;;;;74.33;55.67;;;;;23.56;80.23;100579.58;110518;1264;12989;-48
2022/08/18 02:27:10;;;;;;;;;72.00;53.33;;;;;23.39;80.50;100580.58;110395;1264;13351;-47
2022/08/18 02:29:38;;;;;;;;;69.00;54.00;;;;;23.31;81.02;100579.33;110424;1264;12785;-50
2022/08/18 02:32:05;;;;;;;;;74.00;57.00;;;;;23.18;81.42;100574.97;110517;1264;10579;-46
2022/08/18 02:34:32;;;;;;;;;69.67;55.33;;;;;23.26;81.54;100571.39;110486;1265;13287;-49
2022/08/18 02:37:00;;;;;;;;;72.00;55.00;;;;;23.32;81.01;100573.36;110449;1265;13662;-49
2022/08/18 02:39:27;;;;;;;;;73.67;54.67;;;;;23.24;81.21;100573.88;110461;1264;14973;-47
2022/08/18 02:41:54;;;;;;;;;69.00;54.67;;;;;23.36;81.15;100572.85;110360;1264;15068;-49
2022/08/18 02:44:21;;;;;;;;;69.33;54.00;;;;;23.35;80.63;100570.98;110541;1264;11888;-49
2022/08/18 02:46:49;;;;;;;;;66.00;53.67;;;;;23.36;80.93;100568.80;110499;1264;14518;-48
2022/08/18 02:49:16;;;;;;;;;69.00;55.00;;;;;23.37;80.88;100570.54;110525;1264;15353;-48
2022/08/18 02:51:45;;;;;;;;;69.50;54.50;;;;;23.28;81.32;100573.07;110534;1265;14489;-48
2022/08/18 02:54:12;;;;;;;;;67.50;53.00;;;;;23.23;81.79;100572.45;110527;1265;12820;-49
2022/08/18 02:56:40;;;;;;;;;67.67;53.33;;;;;23.18;82.07;100569.41;110521;1264;14954;-47
2022/08/18 02:59:08;;;;;;;;;68.00;54.00;;;;;23.22;82.04;100565.92;110534;1265;11467;-49
2022/08/18 03:01:35;;;;;;;;;64.00;52.00;;;;;23.30;81.77;100564.92;110528;1264;14978;-48
2022/08/18 03:04:03;;;;;;;;;66.50;54.00;;;;;23.24;81.66;100571.36;110495;1265;14588;-48
2022/08/18 03:06:30;;;;;;;;;67.33;53.67;;;;;23.21;81.88;100572.89;110535;1264;13921;-47
2022/08/18 03:08:57;;;;;;;;;67.00;54.00;;;;;23.30;81.70;100578.90;110489;1264;15092;-46
2022/08/18 03:11:24;;;;;;;;;68.50;54.00;;;;;23.31;81.57;100574.83;110478;1264;10400;-47
2022/08/18 03:13:52;;;;;;;;;66.00;51.00;;;;;23.41;81.20;100576.09;110513;1264;14588;-47
2022/08/18 03:16:20;;;;;;;;;64.00;51.00;;;;;23.31;81.33;100577.98;110414;1264;15035;-50
2022/08/18 03:18:48;;;;;;;;;68.00;54.00;;;;;23.22;81.68;100580.01;110514;1265;14406;-48
2022/08/18 03:21:15;;;;;;;;;69.00;55.67;;;;;23.09;82.22;100581.46;110552;1264;14829;-48
2022/08/18 03:23:43;;;;;;;;;71.00;56.00;;;;;23.14;82.24;100582.66;110565;1264;14631;-48
2022/08/18 03:26:10;;;;;;;;;66.00;53.00;;;;;23.18;82.01;100587.04;110555;1264;10385;-48
2022/08/18 03:28:37;;;;;;;;;69.50;55.00;;;;;23.19;81.78;100582.92;110505;1264;14656;-47
2022/08/18 03:31:05;;;;;;;;;69.50;55.00;;;;;23.06;82.13;100584.08;110522;1265;14686;-50
2022/08/18 03:33:32;;;;;;;;;64.00;52.67;;;;;22.82;82.79;100582.96;110507;1264;14966;-48
2022/08/18 03:35:59;;;;;;;;;67.00;51.00;;;;;22.68;83.69;100578.06;110532;1264;15577;-48
2022/08/18 03:38:26;;;;;;;;;64.00;50.33;;;;;22.77;83.82;100573.42;110441;1264;11515;-47
2022/08/18 03:40:54;;;;;;;;;69.67;52.33;;;;;22.89;83.18;100573.96;110400;1265;15251;-47
2022/08/18 03:43:21;;;;;;;;;69.00;54.67;;;;;22.68;83.63;100577.38;110521;1264;14971;-49
2022/08/18 03:45:48;;;;;;;;;64.33;52.00;;;;;22.60;84.16;100579.27;110549;1265;14627;-48
2022/08/18 03:48:15;;;;;;;;;68.33;53.67;;;;;22.66;84.16;100581.03;110529;1264;14165;-44
2022/08/18 03:50:46;;;;;;;;;66.00;53.50;;;;;22.64;84.23;100587.65;110529;1264;15460;-49
2022/08/18 03:53:13;;;;;;;;;65.50;53.00;;;;;22.67;84.22;100584.82;110585;1264;10538;-46
2022/08/18 03:55:40;;;;;;;;;69.67;52.33;;;;;22.75;83.90;100589.37;110507;1264;14851;-53
2022/08/18 03:58:13;;;;;;;;;62.00;51.00;;;;;22.73;83.82;100596.44;110477;1264;13420;-48
2022/08/18 04:00:40;;;;;;;;;65.00;51.50;;;;;22.87;83.60;100600.52;110352;1264;15302;-51
2022/08/18 04:03:08;;;;;;;;;63.00;51.00;;;;;22.93;82.98;100605.77;110344;1264;15041;-47
2022/08/18 04:05:36;;;;;;;;;69.00;54.33;;;;;22.84;83.05;100605.95;110444;1264;10514;-49
2022/08/18 04:08:04;;;;;;;;;69.67;52.67;;;;;22.75;83.51;100608.32;110458;1265;15778;-48
2022/08/18 04:10:32;;;;;;;;;69.50;53.00;;;;;22.68;83.87;100609.41;110518;1264;14759;-47
2022/08/18 04:12:59;;;;;;;;;65.67;53.00;;;;;22.78;83.58;100609.29;110442;1264;15477;-48
2022/08/18 04:15:26;;;;;;;;;65.33;51.33;;;;;22.78;83.58;100605.91;110499;1264;15458;-46
2022/08/18 04:17:53;;;;;;;;;64.50;51.00;;;;;22.78;83.42;100611.08;110502;1264;15389;-48
2022/08/18 04:20:23;;;;;;;;;67.67;53.00;;;;;22.66;83.53;100612.80;110496;1262;10400;-48
2022/08/18 04:22:50;;;;;;;;;66.00;55.00;;;;;22.77;83.63;100614.18;110523;1265;13601;-48
2022/08/18 04:25:18;;;;;;;;;68.67;53.00;;;;;23.00;82.86;100610.13;110406;1265;14665;-49
2022/08/18 04:27:45;;;;;;;;;66.00;54.00;;;;;22.98;82.41;100609.48;110501;1265;14691;-48
2022/08/18 04:30:13;;;;;;;;;67.00;53.67;;;;;22.94;82.55;100612.69;110481;1265;15572;-47
2022/08/18 04:32:40;;;;;;;;;66.00;50.00;;;;;22.93;82.41;100618.80;110469;1265;14476;-51
2022/08/18 04:35:07;;;;;;;;;69.33;54.67;;;;;22.98;82.49;100620.74;110540;1264;10507;-49
2022/08/18 04:37:35;;;;;;;;;64.67;52.00;;;;;22.90;82.51;100621.75;110392;1265;14333;-47
2022/08/18 04:40:02;;;;;;;;;70.00;55.50;;;;;22.99;82.54;100624.29;110342;1264;14019;-48
2022/08/18 04:42:29;;;;;;;;;73.50;55.00;;;;;23.20;81.86;100623.27;110342;1264;14029;-51
2022/08/18 04:44:57;;;;;;;;;65.67;53.00;;;;;23.25;81.07;100619.50;110355;1264;15227;-45
2022/08/18 04:47:25;;;;;;;;;70.00;52.00;;;;;22.98;81.50;100618.05;110467;1264;10470;-48
2022/08/18 04:49:52;;;;;;;;;66.00;54.00;;;;;22.94;82.03;100618.18;110409;1263;14185;-47
2022/08/18 04:55:04;;;;;;;;;63.00;50.00;;;;;22.99;81.90;100621.05;110382;1265;15097;-52
2022/08/18 04:57:32;;;;;;;;;62.00;51.67;;;;;23.12;81.64;100622.91;110339;1264;14959;-48
2022/08/18 04:59:59;;;;;;;;;63.00;51.00;;;;;23.18;81.29;100628.30;110324;1264;14279;-47
2022/08/18 05:02:26;;;;;;;;;64.33;51.00;;;;;23.07;81.60;100632.99;110447;1264;12170;-47
2022/08/18 05:04:54;;;;;;;;;62.67;51.00;;;;;23.16;81.71;100635.77;110422;1264;13407;-49
2022/08/18 05:07:22;;;;;;;;;66.00;52.67;;;;;23.46;81.00;100632.02;110449;1264;13941;-48
2022/08/18 05:09:49;;;;;;;;;68.00;52.33;;;;;23.96;79.17;100632.58;110427;1264;14789;-50
2022/08/18 05:12:16;;;;;;;;;63.33;52.00;;;;;24.07;78.09;100634.98;110400;1264;14360;-49
2022/08/18 05:14:44;;;;;;;;;68.67;54.00;;;;;23.89;78.42;100633.92;110533;1264;14061;-52
2022/08/18 05:17:11;;;;;;;;;64.00;51.50;;;;;23.75;78.94;100632.61;109440;1264;1370356;-47
2022/08/18 05:19:38;;;;;;;;;64.50;52.50;;;;;23.56;79.31;100636.18;110492;1264;14928;-48
2022/08/18 05:22:06;;;;;;;;;63.67;52.00;;;;;23.48;79.65;100637.55;110396;1265;14879;-47
2022/08/18 05:24:35;;;;;;;;;67.33;53.67;;;;;23.46;79.48;100637.42;110512;1264;15374;-49
2022/08/18 05:27:02;;;;;;;;;63.33;49.67;;;;;23.52;79.27;100634.84;110536;1263;14831;-49
2022/08/18 05:29:35;;;;;;;;;62.00;52.00;;;;;23.66;78.77;100630.86;110438;1263;12855;-44
2022/08/18 05:32:05;;;;;;;;;69.00;55.00;;;;;23.53;78.94;100639.58;110424;1264;14212;-48
2022/08/18 05:34:32;;;;;;;;;66.00;53.50;;;;;23.50;78.99;100637.77;110457;1265;14187;-48
2022/08/18 05:37:00;;;;;;;;;68.67;53.67;;;;;23.56;79.15;100639.98;110427;1264;13719;-47
2022/08/18 05:39:28;;;;;;;;;70.00;54.00;;;;;23.55;78.67;100644.52;110458;1264;12880;-48
2022/08/18 05:41:55;;;;;;;;;67.67;53.00;;;;;23.30;79.46;100640.77;110435;1264;15216;-47
2022/08/18 05:44:22;;;;;;;;;64.67;51.67;;;;;23.53;79.20;100638.71;110526;1264;11449;-48
2022/08/18 05:46:51;;;;;;;;;68.50;53.50;;;;;23.94;78.02;100642.95;110470;1264;14776;-49
2022/08/18 05:49:18;;;;;;;;;69.33;52.67;;;;;24.00;77.35;100644.70;110485;1264;14866;-47
2022/08/18 05:51:45;;;;;;;;;65.33;52.67;;;;;24.12;77.07;100646.11;110484;1264;15369;-51
2022/08/18 05:56:58;;;;;;;;;61.00;49.50;;;;;24.15;76.52;100651.20;110461;1264;14494;-48
2022/08/18 05:59:25;;;;;;;;;63.00;50.33;;;;;24.19;76.34;100650.71;110486;1265;10423;-48
2022/08/18 06:01:53;;;;;;;;;61.67;51.00;;;;;24.01;76.95;100651.28;110435;1264;15564;-44
2022/08/18 06:04:20;;;;;;;;;64.50;51.00;;;;;24.13;76.79;100653.13;110476;1265;14374;-48
2022/08/18 06:06:48;;;;;;;;;61.67;50.00;;;;;24.12;76.55;100648.40;110428;1265;14470;-47
2022/08/18 06:09:15;;;;;;;;;60.33;48.67;;;;;23.97;77.08;100643.70;110454;1264;14964;-45
2022/08/18 06:11:43;;;;;;;;;61.67;49.00;;;;;23.96;77.18;100646.36;110309;1264;12572;-50
2022/08/18 06:14:10;;;;;;;;;66.33;52.00;;;;;24.09;77.02;100644.34;110428;1264;11753;-49
2022/08/18 06:16:37;;;;;;;;;63.67;51.67;;;;;24.18;76.57;100647.90;110500;1264;15021;-50
2022/08/18 06:19:04;;;;;;;;;64.33;51.00;;;;;24.09;76.72;100645.06;110330;1264;14149;-51
2022/08/18 06:21:32;;;;;;;;;65.00;51.00;;;;;23.97;77.27;100646.91;110429;1263;15005;-48
2022/08/18 06:24:00;;;;;;;;;63.00;50.67;;;;;24.09;77.07;100650.79;110383;1264;14847;-48
2022/08/18 06:26:27;;;;;;;;;63.67;49.33;;;;;24.25;76.60;100653.34;110487;1265;11054;-49
2022/08/18 06:28:54;;;;;;;;;61.67;49.67;;;;;24.47;75.96;100648.53;110492;1264;15098;-50
2022/08/18 06:31:22;;;;;;;;;62.00;48.67;;;;;24.68;75.19;100648.58;110506;1265;15021;-48
2022/08/18 06:33:50;;;;;;;;;65.00;52.00;;;;;24.69;74.92;100656.25;110485;1264;14179;-48
2022/08/18 06:36:17;;;;;;;;;61.00;48.33;;;;;24.52;75.22;100658.42;110429;1265;14775;-49
2022/08/18 06:38:44;;;;;;;;;65.00;52.00;;;;;24.54;75.44;100660.53;110476;1265;13665;-49
2022/08/18 06:41:12;;;;;;;;;63.00;51.67;;;;;24.59;75.12;100662.80;110469;1264;11445;-48
2022/08/18 06:43:39;;;;;;;;;58.00;48.00;;;;;24.53;75.26;100666.48;110504;1264;13829;-49
2022/08/18 06:46:06;;;;;;;;;60.67;50.67;;;;;24.54;75.31;100670.65;110474;1264;14696;-50
2022/08/18 06:48:34;;;;;;;;;63.00;51.00;;;;;24.54;75.34;100668.84;110436;1264;14924;-49
2022/08/18 06:51:01;;;;;;;;;63.00;51.00;;;;;24.53;75.55;100668.38;110441;1265;13831;-48
2022/08/18 06:53:29;;;;;;;;;62.67;50.33;;;;;24.65;75.38;100665.95;110540;1264;12238;-47
2022/08/18 06:55:56;;;;;;;;;62.00;49.00;;;;;24.88;74.72;100668.95;110465;1264;15921;-49
2022/08/18 06:58:23;;;;;;;;;61.33;47.67;;;;;24.94;74.31;100670.52;110433;1264;13226;-47
2022/08/18 07:00:51;;;;;;;;;63.67;50.00;;;;;24.94;74.17;100670.20;110503;1264;12640;-47
2022/08/18 07:03:18;;;;;;;;;59.00;48.67;;;;;25.07;73.98;100670.27;110325;1264;14045;-47
2022/08/18 07:05:45;;;;;;;;;57.00;46.33;;;;;25.17;73.53;100667.18;110228;1264;14648;-49
2022/08/18 07:08:13;;;;;;;;;60.00;49.00;;;;;25.33;72.98;100673.50;110330;1264;13268;-46
2022/08/18 07:10:40;;;;;;;;;60.00;49.00;;;;;25.26;72.73;100671.80;110324;1263;15076;-48
2022/08/18 07:13:07;;;;;;;;;56.67;46.00;;;;;25.31;72.65;100677.23;110435;1265;14289;-49
2022/08/18 07:15:35;;;;;;;;;58.00;46.00;;;;;25.39;72.43;100674.79;110403;1264;13050;-49
2022/08/18 07:18:03;;;;;;;;;60.00;47.67;;;;;25.50;72.11;100677.08;110490;1264;12229;-48
2022/08/18 07:20:31;;;;;;;;;58.33;47.67;;;;;25.60;71.84;100677.41;110445;1264;10528;-48
2022/08/18 07:22:58;;;;;;;;;63.00;48.00;;;;;25.71;71.33;100675.64;110536;1265;14478;-48
2022/08/18 07:25:26;;;;;;;;;60.67;47.33;;;;;25.67;71.29;100671.50;110538;1264;14638;-47
2022/08/18 07:27:55;;;;;;;;;55.00;46.00;;;;;25.57;71.48;100670.35;110508;1264;12740;-48
2022/08/18 07:30:22;;;;;;;;;58.33;48.33;;;;;25.62;71.49;100669.27;110523;1264;13950;-48
2022/08/18 07:32:50;;;;;;;;;58.50;47.00;;;;;25.75;71.03;100669.20;110520;1264;14160;-48
2022/08/18 07:35:17;;;;;;;;;56.33;46.67;;;;;25.72;71.04;100669.56;110534;1264;11233;-48
2022/08/18 07:37:45;;;;;;;;;58.67;47.33;;;;;25.72;70.79;100669.09;110518;1264;12717;-51
2022/08/18 07:40:12;;;;;;;;;55.00;46.00;;;;;25.83;70.48;100667.89;110510;1264;15471;-50
2022/08/18 07:42:39;;;;;;;;;56.00;46.00;;;;;26.02;69.97;100668.14;110455;1264;14813;-49
2022/08/18 07:45:07;;;;;;;;;55.67;46.00;;;;;26.04;69.80;100665.45;110497;1264;13740;-48
2022/08/18 07:47:34;;;;;;;;;55.67;45.33;;;;;26.15;69.51;100663.33;110412;1264;10773;-47
2022/08/18 07:50:02;;;;;;;;;56.67;46.67;;;;;26.14;69.22;100661.34;110487;1264;15218;-48
2022/08/18 07:52:29;;;;;;;;;52.50;43.50;;;;;26.17;69.12;100659.98;110501;1264;15078;-48
2022/08/18 07:54:57;;;;;;;;;55.00;44.33;;;;;26.19;68.99;100661.64;110512;1264;14590;-47
2022/08/18 07:57:24;;;;;;;;;55.50;45.00;;;;;26.20;69.08;100660.02;110522;1264;14239;-51
2022/08/18 07:59:51;;;;;;;;;54.00;44.00;;;;;26.27;68.69;100659.92;110469;1264;14080;-45
2022/08/18 08:02:18;;;;;;;;;52.00;42.33;;;;;26.21;68.53;100659.35;110545;1264;10452;-47
2022/08/18 08:04:46;;;;;;;;;52.00;43.67;;;;;26.32;68.18;100660.79;110463;1264;13750;-50
2022/08/18 08:07:13;;;;;;;;;54.33;44.67;;;;;26.34;68.03;100661.42;110408;1264;15038;-47
2022/08/18 08:09:40;;;;;;;;;52.00;42.00;;;;;26.34;67.97;100665.30;110383;1265;14819;-49
2022/08/18 08:12:07;;;;;;;;;54.00;44.00;;;;;26.27;67.80;100666.73;110479;1264;13408;-52
2022/08/18 08:14:35;;;;;;;;;48.67;41.33;;;;;26.23;67.54;100664.38;110544;1264;11629;-48
2022/08/18 08:17:02;;;;;;;;;52.67;42.67;;;;;26.22;67.72;100664.17;110418;1265;14269;-48
2022/08/18 08:19:30;;;;;;;;;53.00;43.67;;;;;26.20;67.91;100662.17;110502;1264;16023;-49
2022/08/18 08:21:57;;;;;;;;;50.33;42.00;;;;;26.29;67.89;100664.44;110452;1265;14638;-48
2022/08/18 08:24:24;;;;;;;;;55.00;42.67;;;;;26.42;67.30;100666.24;110516;1264;15690;-48
2022/08/18 08:26:52;;;;;;;;;53.33;43.67;;;;;26.39;67.07;100665.38;110516;1264;14436;-48
2022/08/18 08:29:20;;;;;;;;;54.00;43.00;;;;;26.34;66.88;100669.58;110481;1262;13284;-49
2022/08/18 08:31:47;;;;;;;;;46.00;39.00;;;;;26.30;66.69;100669.16;110463;1264;14372;-50
2022/08/18 08:34:15;;;;;;;;;47.67;40.33;;;;;26.35;66.20;100670.00;110446;1265;13560;-52
2022/08/18 08:36:43;;;;;;;;;42.00;37.50;;;;;26.34;66.01;100674.27;110396;1264;11224;-48
2022/08/18 08:39:11;;;;;;;;;43.00;38.00;;;;;26.38;65.88;100676.34;110502;1264;13658;-51
2022/08/18 08:41:38;;;;;;;;;44.67;38.33;;;;;26.45;65.65;100674.42;110554;1264;10508;-44
2022/08/18 08:44:05;;;;;;;;;47.00;38.67;;;;;26.49;65.40;100675.44;110466;1264;14355;-47
2022/08/18 08:46:33;;;;;;;;;40.67;37.33;;;;;26.44;65.46;100673.85;110492;1264;15528;-48
2022/08/18 08:49:00;;;;;;;;;39.67;35.67;;;;;26.42;65.42;100672.87;110464;1264;14026;-50
2022/08/18 08:51:27;;;;;;;;;43.33;38.00;;;;;26.44;65.27;100670.85;110509;1264;15299;-49
2022/08/18 08:53:54;;;;;;;;;44.00;38.00;;;;;26.47;65.28;100672.15;110458;1264;15215;-48
2022/08/18 08:56:22;;;;;;;;;43.00;38.33;;;;;26.48;65.18;100672.99;110536;1265;13179;-51
2022/08/18 08:58:49;;;;;;;;;42.67;38.00;;;;;26.53;65.17;100668.15;110492;1264;15393;-45
2022/08/18 09:01:17;;;;;;;;;44.33;37.00;;;;;26.55;65.22;100667.90;110500;1264;15474;-47
2022/08/18 09:03:45;;;;;;;;;42.33;37.67;;;;;26.70;65.04;100666.31;110487;1264;14598;-46
2022/08/18 09:06:12;;;;;;;;;48.33;39.33;;;;;26.82;64.58;100664.95;110476;1264;14644;-46
2022/08/18 09:08:40;;;;;;;;;45.00;38.33;;;;;26.78;64.57;100664.74;110514;1265;10527;-50
2022/08/18 09:11:07;;;;;;;;;48.33;40.00;;;;;26.76;64.77;100663.39;110452;1265;15224;-52
2022/08/18 09:13:34;;;;;;;;;51.33;41.67;;;;;26.70;64.79;100662.67;110431;1264;15152;-48
2022/08/18 09:16:02;;;;;;;;;51.33;40.00;;;;;26.65;64.86;100662.65;110453;1265;15126;-48
2022/08/18 09:18:29;;;;;;;;;46.67;39.67;;;;;26.64;65.07;100665.86;110481;1264;13950;-48
2022/08/18 09:20:56;;;;;;;;;52.00;40.67;;;;;26.62;65.23;100665.84;110496;1264;14548;-47
2022/08/18 09:23:23;;;;;;;;;49.33;41.33;;;;;26.68;65.09;100666.44;110515;1265;13157;-48
2022/08/18 09:25:51;;;;;;;;;48.50;40.00;;;;;26.68;64.88;100669.48;110492;1264;15142;-47
2022/08/18 09:28:18;;;;;;;;;48.67;41.00;;;;;26.60;64.88;100670.70;110456;1265;14370;-46
2022/08/18 09:30:45;;;;;;;;;51.67;42.00;;;;;26.65;64.65;100668.69;110369;1264;13803;-48
2022/08/18 09:33:13;;;;;;;;;44.33;39.33;;;;;26.77;64.57;100675.04;110492;1264;13456;-46
2022/08/18 09:35:40;;;;;;;;;46.67;39.67;;;;;26.90;64.16;100675.77;110495;1265;13242;-48
2022/08/18 09:43:38;;;;;;;;;49.50;40.50;;;;;26.87;63.79;100676.47;110492;1265;12075;-49
2022/08/18 09:46:06;;;;;;;;;49.67;40.00;;;;;27.02;63.56;100676.61;110474;1264;14430;-48
2022/08/18 09:48:33;;;;;;;;;42.00;38.67;;;;;26.98;62.99;100674.00;110412;1264;14238;-47
2022/08/18 09:51:01;;;;;;;;;43.00;39.00;;;;;26.96;62.90;100677.02;110433;1264;15280;-47
2022/08/18 09:53:28;;;;;;;;;48.33;40.67;;;;;26.92;62.80;100672.55;110492;1264;13921;-48
2022/08/18 09:55:55;;;;;;;;;48.00;40.00;;;;;27.00;62.41;100672.48;110309;1263;14980;-49
2022/08/18 09:58:22;;;;;;;;;45.00;39.67;;;;;27.01;62.29;100675.09;110446;1263;15470;-50
2022/08/18 10:00:51;;;;;;;;;47.00;41.00;;;;;26.99;62.10;100675.05;110475;1265;12572;-48
2022/08/18 10:03:18;;;;;;;;;44.00;39.00;;;;;26.96;61.67;100672.27;110402;1265;15162;-47
2022/08/18 10:05:45;;;;;;;;;46.33;40.33;;;;;26.98;61.34;100671.38;110476;1264;11368;-51
2022/08/18 10:08:13;;;;;;;;;47.00;39.67;;;;;26.91;61.32;100670.77;110409;1264;14011;-49
2022/08/18 10:10:41;;;;;;;;;48.00;40.67;;;;;26.82;61.56;100667.56;110325;1264;13343;-49
2022/08/18 10:13:09;;;;;;;;;42.33;37.33;;;;;26.93;60.88;100664.46;110475;1264;14112;-49
2022/08/18 10:15:36;;;;;;;;;49.33;41.33;;;;;26.93;60.62;100660.15;110457;1263;14623;-48
2022/08/18 10:18:04;;;;;;;;;49.00;40.33;;;;;27.03;60.32;100662.77;110482;1265;15735;-49
2022/08/18 10:20:31;;;;;;;;;46.67;40.67;;;;;27.11;59.95;100659.02;110420;1264;10642;-49
2022/08/18 10:22:58;;;;;;;;;48.67;41.00;;;;;27.09;59.87;100652.55;110473;1265;15199;-49
2022/08/18 10:25:26;;;;;;;;;47.67;39.67;;;;;27.04;59.95;100648.58;110452;1264;15043;-48
2022/08/18 10:27:53;;;;;;;;;47.33;37.00;;;;;27.08;60.03;100649.50;110479;1264;14021;-48
2022/08/18 10:30:20;;;;;;;;;45.33;38.33;;;;;27.11;60.17;100647.09;110557;1264;14724;-48
2022/08/18 10:32:48;;;;;;;;;49.00;40.00;;;;;27.13;60.08;100647.54;110536;1264;11737;-48
2022/08/18 10:35:15;;;;;;;;;49.00;41.00;;;;;27.12;59.84;100644.27;110548;1264;13374;-48
2022/08/18 10:37:43;;;;;;;;;50.33;42.00;;;;;27.09;59.50;100647.39;110510;1265;15182;-48
2022/08/18 10:40:11;;;;;;;;;48.00;40.00;;;;;27.12;59.00;100641.36;110477;1264;17845;-47
2022/08/18 10:42:39;;;;;;;;;47.50;40.50;;;;;27.14;58.76;100642.73;110388;1265;15283;-46
2022/08/18 10:45:06;;;;;;;;;50.67;41.67;;;;;27.16;58.61;100643.27;110483;1264;14779;-47
2022/08/18 10:47:34;;;;;;;;;53.00;44.00;;;;;27.13;58.89;100640.55;110472;1264;10325;-48
2022/08/18 10:50:01;;;;;;;;;52.00;42.67;;;;;27.03;59.32;100643.03;110442;1264;13114;-49
2022/08/18 10:52:28;;;;;;;;;56.00;45.00;;;;;27.13;59.11;100638.47;110436;1264;14312;-48
2022/08/18 10:54:55;;;;;;;;;53.67;44.67;;;;;27.07;59.42;100642.02;110400;1265;14690;-51
2022/08/18 10:57:23;;;;;;;;;50.67;43.00;;;;;27.09;59.32;100642.40;110367;1264;12604;-48
2022/08/18 10:59:50;;;;;;;;;52.67;44.00;;;;;27.14;58.98;100642.45;110491;1264;14798;-48
2022/08/18 11:02:17;;;;;;;;;52.33;42.33;;;;;27.10;59.12;100641.34;110504;1264;12898;-48
2022/08/18 11:04:46;;;;;;;;;49.00;42.00;;;;;27.11;59.12;100639.88;110493;1264;14756;-52
2022/08/18 11:07:16;;;;;;;;;48.00;41.00;;;;;27.13;59.10;100633.89;110468;1265;12119;-48
2022/08/18 11:09:43;;;;;;;;;43.00;38.00;;;;;27.16;58.64;100626.68;110498;1263;14646;-48
2022/08/18 11:12:10;;;;;;;;;45.50;40.00;;;;;27.15;58.05;100628.51;110509;1264;14979;-50
2022/08/18 11:14:37;;;;;;;;;51.00;41.00;;;;;27.10;57.47;100626.31;110467;1263;13414;-49
2022/08/18 11:17:05;;;;;;;;;48.67;40.00;;;;;27.06;57.37;100625.39;110493;1264;15176;-49
2022/08/18 11:19:32;;;;;;;;;49.33;41.67;;;;;27.13;57.66;100623.05;110374;1264;15050;-50
2022/08/18 11:22:01;;;;;;;;;48.00;40.00;;;;;27.15;57.36;100617.63;110491;1264;15354;-48